Terminal Aerodrome Forecast
Issued by NWS Mt. Holly, NJ

Current Version | Previous Version | Text Only | Print | Product List | Glossary On
Versions: 1 2 3 4 5 6 7 8 9 10 11 12 13 14 15 16 17 18 19 20 21 22 23 24 25 26 27 28
725
FTAK31 PANC 181125
TAFABE
TAF
PABE 181125Z 1812/1912 VRB05KT P6SM BKN080 OVC120
     FM181600 33011G20KT P6SM -SHRA BKN025 OVC035
     FM182200 33012KT P6SM SCT025 OVC040=

USA.gov is the U.S. government's official web portal to all federal, state and local government web resources and services.